Time;durP1;ratioP1;P1;durP2;ratioP2;P2;SDS_P1;SDS_P2;PMS_P1;PMS_P2;Temp;Humidity;BMP_temperature;BMP_pressure;BME280_temperature;BME280_humidity;BME280_pressure;Samples;Min_cycle;Max_cycle;Signal;HPM_P1;HPM_P2
2022/10/04 00:01:48;;;;;;;3.40;0.47;;;10.00;99.90;;;;;;5019615;28;20418;-90
2022/10/04 00:04:22;;;;;;;2.20;0.60;;;9.90;99.90;;;;;;5020707;28;20412;-90
2022/10/04 00:06:54;;;;;;;4.00;0.60;;;9.90;99.90;;;;;;5021108;28;20478;-91
2022/10/04 00:09:30;;;;;;;3.23;0.40;;;9.90;99.90;;;;;;5020323;28;20988;-90
2022/10/04 00:11:56;;;;;;;1.73;0.70;;;9.80;99.90;;;;;;5019219;28;20447;-92
2022/10/04 00:14:31;;;;;;;4.80;0.70;;;9.80;99.90;;;;;;5017200;28;20810;-92
2022/10/04 00:16:58;;;;;;;4.67;0.40;;;9.80;99.90;;;;;;5016529;28;20420;-91
2022/10/04 00:19:50;;;;;;;0.63;0.23;;;9.80;99.90;;;;;;5034598;28;20414;-89
2022/10/04 00:22:21;;;;;;;0.73;0.30;;;9.70;99.90;;;;;;5016936;28;20415;-92
2022/10/04 00:25:13;;;;;;;3.13;0.30;;;9.60;99.90;;;;;;5025286;28;20464;-92
2022/10/04 00:27:59;;;;;;;0.80;0.30;;;9.60;99.90;;;;;;5070128;22;21548;-90
2022/10/04 00:30:37;;;;;;;1.53;0.30;;;9.40;99.90;;;;;;5040225;22;20468;-90
2022/10/04 00:33:03;;;;;;;3.13;0.30;;;9.40;99.90;;;;;;5043652;28;20447;-90
2022/10/04 00:35:28;;;;;;;1.07;0.30;;;9.40;99.90;;;;;;5031518;28;20529;-90
2022/10/04 00:38:15;;;;;;;4.47;0.23;;;9.40;99.90;;;;;;5032383;28;20434;-90
2022/10/04 00:41:04;;;;;;;2.20;0.27;;;9.40;99.90;;;;;;5033988;28;20174;-90
2022/10/04 00:43:57;;;;;;;1.60;0.20;;;9.40;99.90;;;;;;5032174;28;20426;-90
2022/10/04 00:46:26;;;;;;;0.80;0.20;;;9.50;99.90;;;;;;5030001;28;20448;-91
2022/10/04 00:48:59;;;;;;;2.83;0.20;;;9.40;99.90;;;;;;5044216;28;20414;-91
2022/10/04 00:51:40;;;;;;;1.13;0.30;;;9.30;99.90;;;;;;5026867;28;20530;-90
2022/10/04 00:54:10;;;;;;;1.30;0.20;;;9.30;99.90;;;;;;5031013;28;20470;-89
2022/10/04 00:56:53;;;;;;;1.10;0.20;;;9.20;99.90;;;;;;5030550;28;20461;-90
2022/10/04 00:59:46;;;;;;;2.67;0.50;;;9.20;99.90;;;;;;5033221;28;20415;-92
2022/10/04 01:04:52;;;;;;;2.07;0.50;;;9.20;99.90;;;;;;5053811;22;20535;-89
2022/10/04 01:07:27;;;;;;;3.23;0.20;;;9.20;99.90;;;;;;5028083;28;20195;-90
2022/10/04 01:10:07;;;;;;;1.47;0.30;;;9.20;99.90;;;;;;5002012;28;20469;-90
2022/10/04 01:13:00;;;;;;;1.90;0.30;;;9.20;99.90;;;;;;5021946;28;20418;-90
2022/10/04 01:16:03;;;;;;;2.10;0.40;;;9.20;99.90;;;;;;5020560;28;20434;-89
2022/10/04 01:18:32;;;;;;;3.80;0.30;;;9.10;99.90;;;;;;5013304;28;20577;-91
2022/10/04 01:21:02;;;;;;;1.17;0.30;;;9.20;99.90;;;;;;5017888;28;20443;-89
2022/10/04 01:23:36;;;;;;;1.50;0.20;;;9.10;99.90;;;;;;5051500;28;20416;-89
2022/10/04 01:26:29;;;;;;;3.23;0.50;;;9.20;99.90;;;;;;5033647;28;20434;-89
2022/10/04 01:29:00;;;;;;;2.53;0.43;;;9.20;99.90;;;;;;5045311;28;20917;-90
2022/10/04 01:31:27;;;;;;;1.60;0.27;;;9.20;99.90;;;;;;5015712;28;20436;-90
2022/10/04 01:33:54;;;;;;;1.80;0.30;;;9.30;99.90;;;;;;5007013;28;20826;-90
2022/10/04 01:36:20;;;;;;;1.87;0.77;;;9.30;99.90;;;;;;5010314;28;20423;-91
2022/10/04 01:38:46;;;;;;;1.17;0.47;;;9.30;99.90;;;;;;5010259;28;20430;-90
2022/10/04 01:41:16;;;;;;;2.23;0.40;;;9.30;99.90;;;;;;5008816;28;20206;-91
2022/10/04 01:43:44;;;;;;;2.70;0.47;;;9.30;99.90;;;;;;5003249;28;20418;-91
2022/10/04 01:46:15;;;;;;;2.13;0.37;;;9.30;99.90;;;;;;5009201;28;20424;-90
2022/10/04 01:48:43;;;;;;;6.07;0.40;;;9.30;99.90;;;;;;5007280;28;20423;-90
2022/10/04 01:51:26;;;;;;;3.00;0.20;;;9.40;99.90;;;;;;5014699;28;20429;-91
2022/10/04 01:54:10;;;;;;;2.97;0.30;;;9.40;99.90;;;;;;5021254;28;20516;-91
2022/10/04 01:56:49;;;;;;;3.17;0.63;;;9.50;99.90;;;;;;5021717;28;20417;-91
2022/10/04 01:59:22;;;;;;;2.70;0.50;;;9.50;99.90;;;;;;5022084;28;20425;-90
2022/10/04 02:01:55;;;;;;;1.53;0.43;;;9.40;99.90;;;;;;5021965;28;20755;-91
2022/10/04 02:04:26;;;;;;;2.00;0.63;;;9.30;99.90;;;;;;5036897;28;20470;-90
2022/10/04 02:06:55;;;;;;;0.90;0.20;;;9.20;99.90;;;;;;5040749;28;20421;-90
2022/10/04 02:09:32;;;;;;;2.20;0.57;;;9.20;99.90;;;;;;5042358;28;20455;-90
2022/10/04 02:11:59;;;;;;;1.20;0.50;;;9.30;99.90;;;;;;5043613;28;20429;-90
2022/10/04 02:14:34;;;;;;;1.80;0.53;;;9.30;99.90;;;;;;5043910;28;20422;-90
2022/10/04 02:17:09;;;;;;;1.30;0.67;;;9.40;99.90;;;;;;5046540;28;20428;-90
2022/10/04 02:19:37;;;;;;;0.80;0.20;;;9.40;99.90;;;;;;5043058;28;20409;-90
2022/10/04 02:22:04;;;;;;;2.63;0.70;;;9.30;99.90;;;;;;5043563;28;20827;-91
2022/10/04 02:24:36;;;;;;;1.20;0.50;;;9.40;99.90;;;;;;5041847;28;20422;-92
2022/10/04 02:27:02;;;;;;;2.43;0.50;;;9.50;99.90;;;;;;5043631;28;20429;-90
2022/10/04 02:29:28;;;;;;;3.13;0.47;;;9.50;99.90;;;;;;5043801;28;20476;-92
2022/10/04 02:34:40;;;;;;;1.73;0.50;;;9.70;99.90;;;;;;5018708;28;20190;-90
2022/10/04 02:37:07;;;;;;;1.03;0.40;;;9.80;99.90;;;;;;5043695;28;20497;-90
2022/10/04 02:39:50;;;;;;;3.70;0.47;;;9.90;99.90;;;;;;5042493;28;20508;-90
2022/10/04 02:42:42;;;;;;;1.70;0.43;;;9.80;99.90;;;;;;5043141;28;20420;-90
2022/10/04 02:45:43;;;;;;;6.13;0.50;;;9.80;99.90;;;;;;5042920;28;20432;-91
2022/10/04 02:48:33;;;;;;;3.90;0.43;;;9.80;99.90;;;;;;5041271;28;20922;-90
2022/10/04 02:51:25;;;;;;;1.63;0.63;;;9.90;99.90;;;;;;5041973;28;20489;-90
2022/10/04 02:54:19;;;;;;;6.03;0.70;;;10.00;99.90;;;;;;5042279;28;20418;-90
2022/10/04 02:56:52;;;;;;;11.80;1.33;;;10.00;99.90;;;;;;5041811;28;20464;-90
2022/10/04 02:59:18;;;;;;;2.93;0.40;;;10.00;99.90;;;;;;5043582;28;20452;-90
2022/10/04 03:02:00;;;;;;;4.00;0.67;;;10.00;99.90;;;;;;5042994;28;20412;-90
2022/10/04 03:04:30;;;;;;;4.43;0.57;;;10.00;99.90;;;;;;5040864;28;20818;-89
2022/10/04 03:07:00;;;;;;;0.97;0.50;;;10.00;99.90;;;;;;5042452;28;20422;-90
2022/10/04 03:09:27;;;;;;;1.63;0.70;;;10.00;99.90;;;;;;5041717;28;20496;-90
2022/10/04 03:11:53;;;;;;;3.23;0.60;;;10.00;99.90;;;;;;5041100;28;20423;-91
2022/10/04 03:14:21;;;;;;;0.80;0.30;;;10.10;99.90;;;;;;5037567;28;20421;-90
2022/10/04 03:16:50;;;;;;;3.53;0.67;;;10.00;99.90;;;;;;5037429;28;20425;-90
2022/10/04 03:19:18;;;;;;;3.37;0.53;;;10.00;99.90;;;;;;5037236;28;20418;-90
2022/10/04 03:21:46;;;;;;;1.60;0.40;;;10.00;99.90;;;;;;5055021;28;20416;-91
2022/10/04 03:24:27;;;;;;;6.40;1.07;;;9.90;99.90;;;;;;5038170;28;20421;-90
2022/10/04 03:26:56;;;;;;;2.27;0.40;;;10.00;99.90;;;;;;5037433;28;20439;-90
2022/10/04 03:29:25;;;;;;;2.30;0.50;;;10.00;99.90;;;;;;5036707;28;20880;-91
2022/10/04 03:31:56;;;;;;;1.23;0.50;;;9.90;99.90;;;;;;5037077;28;20405;-91
2022/10/04 03:34:25;;;;;;;11.60;1.37;;;9.90;99.90;;;;;;5037440;28;20466;-90
2022/10/04 03:36:55;;;;;;;1.03;0.57;;;10.00;99.90;;;;;;5037132;28;20422;-90
2022/10/04 03:39:58;;;;;;;3.47;0.50;;;10.00;99.90;;;;;;5037189;28;20506;-90
2022/10/04 03:42:27;;;;;;;4.10;0.63;;;9.90;99.90;;;;;;5004642;28;20418;-90
2022/10/04 03:44:58;;;;;;;2.33;0.50;;;10.00;99.90;;;;;;5037073;28;20477;-90
2022/10/04 03:47:31;;;;;;;2.33;0.30;;;10.00;99.90;;;;;;5037194;28;20413;-91
2022/10/04 03:50:03;;;;;;;3.50;1.07;;;9.90;99.90;;;;;;5036650;28;20472;-91
2022/10/04 03:52:32;;;;;;;2.40;0.67;;;9.80;99.90;;;;;;5036998;28;20821;-92
2022/10/04 03:55:02;;;;;;;4.20;0.47;;;9.80;99.90;;;;;;5037465;28;20511;-90
2022/10/04 03:57:29;;;;;;;3.33;0.77;;;9.80;99.90;;;;;;5037079;28;20496;-90
2022/10/04 03:59:56;;;;;;;2.20;0.53;;;9.80;99.90;;;;;;5036768;28;20785;-91
2022/10/04 04:02:29;;;;;;;1.37;0.43;;;9.80;99.90;;;;;;5037042;28;20408;-91
2022/10/04 04:05:23;;;;;;;1.13;0.70;;;9.80;99.90;;;;;;5037153;28;20454;-91
2022/10/04 04:08:03;;;;;;;2.63;0.93;;;9.80;99.90;;;;;;5036666;28;21032;-88
2022/10/04 04:10:32;;;;;;;1.13;0.40;;;9.80;99.90;;;;;;5036796;28;20476;-90
2022/10/04 04:13:10;;;;;;;2.87;0.40;;;9.70;99.90;;;;;;5036646;28;20415;-91
2022/10/04 04:15:42;;;;;;;3.40;1.03;;;9.70;99.90;;;;;;5054893;28;20409;-90
2022/10/04 04:18:15;;;;;;;2.77;0.60;;;9.70;99.90;;;;;;5040654;28;20533;-89
2022/10/04 04:20:42;;;;;;;1.07;0.30;;;9.60;99.90;;;;;;5048943;28;20422;-91
2022/10/04 04:23:14;;;;;;;1.03;0.40;;;9.70;99.90;;;;;;5026009;28;20423;-90
2022/10/04 04:25:42;;;;;;;2.67;0.50;;;9.70;99.90;;;;;;5039037;28;20463;-91
2022/10/04 04:28:29;;;;;;;3.83;0.63;;;9.60;99.90;;;;;;5037548;28;20421;-90
2022/10/04 04:31:06;;;;;;;4.50;0.80;;;9.60;99.90;;;;;;5036784;28;20475;-89
2022/10/04 04:33:48;;;;;;;7.73;0.57;;;9.60;99.90;;;;;;5054122;28;20419;-89
2022/10/04 04:36:15;;;;;;;1.83;0.40;;;9.60;99.90;;;;;;5036644;28;20434;-90
2022/10/04 04:41:30;;;;;;;1.53;0.53;;;9.70;99.90;;;;;;5056641;28;20420;-90
2022/10/04 04:43:56;;;;;;;0.60;0.30;;;9.70;99.90;;;;;;5040722;28;20416;-89
2022/10/04 04:46:22;;;;;;;1.67;0.70;;;9.80;99.90;;;;;;5041101;28;20437;-92
2022/10/04 04:48:52;;;;;;;1.63;0.80;;;9.70;99.90;;;;;;5041038;28;20416;-91
2022/10/04 04:51:22;;;;;;;1.80;0.57;;;9.70;99.90;;;;;;5040595;28;20197;-91
2022/10/04 04:53:49;;;;;;;2.90;0.30;;;9.70;99.90;;;;;;5041260;28;20480;-91
2022/10/04 04:56:22;;;;;;;0.77;0.30;;;9.70;99.90;;;;;;5041013;28;20446;-91
2022/10/04 04:58:50;;;;;;;1.40;0.30;;;9.70;99.90;;;;;;5040785;28;20448;-91
2022/10/04 05:01:24;;;;;;;4.50;0.80;;;9.80;99.90;;;;;;5040605;28;20420;-91
2022/10/04 05:04:21;;;;;;;3.07;0.87;;;10.00;99.90;;;;;;5040888;28;20473;-92
2022/10/04 05:07:18;;;;;;;6.03;1.07;;;10.00;99.90;;;;;;5028448;28;20420;-91
2022/10/04 05:09:43;;;;;;;1.87;0.80;;;10.10;99.90;;;;;;5033305;28;20558;-91
2022/10/04 05:12:21;;;;;;;3.30;0.83;;;10.10;99.90;;;;;;5040231;28;20837;-91
2022/10/04 05:14:51;;;;;;;5.57;1.80;;;10.10;99.90;;;;;;5040220;28;20173;-91
2022/10/04 05:17:19;;;;;;;5.23;1.03;;;10.20;99.90;;;;;;5040051;28;20424;-91
2022/10/04 05:19:45;;;;;;;2.07;1.20;;;10.10;99.90;;;;;;5040775;28;20428;-90
2022/10/04 05:22:13;;;;;;;6.47;1.40;;;10.10;99.90;;;;;;5040211;28;20470;-91
2022/10/04 05:24:46;;;;;;;2.80;1.20;;;10.10;99.90;;;;;;5039942;28;20177;-90
2022/10/04 05:27:34;;;;;;;3.00;1.77;;;10.10;99.90;;;;;;5039995;28;20410;-91
2022/10/04 05:30:07;;;;;;;2.20;1.20;;;10.10;99.90;;;;;;5057962;28;20582;-91
2022/10/04 05:32:49;;;;;;;6.20;1.80;;;10.10;99.90;;;;;;5031581;28;20454;-91
2022/10/04 05:35:17;;;;;;;4.97;1.70;;;10.10;99.90;;;;;;5040183;28;20432;-90
2022/10/04 05:38:02;;;;;;;3.00;0.90;;;10.10;99.90;;;;;;5039894;28;20426;-90
2022/10/04 05:40:40;;;;;;;5.30;1.63;;;10.00;99.90;;;;;;5040192;28;20432;-91
2022/10/04 05:43:28;;;;;;;2.73;1.77;;;10.00;99.90;;;;;;5040028;28;20418;-91
2022/10/04 05:46:13;;;;;;;3.63;0.97;;;10.00;99.90;;;;;;5039492;28;20494;-91
2022/10/04 05:48:42;;;;;;;5.03;1.57;;;9.90;99.90;;;;;;5039950;28;20943;-90
2022/10/04 05:51:26;;;;;;;5.73;1.77;;;10.00;99.90;;;;;;5039333;28;20465;-91
2022/10/04 05:53:54;;;;;;;3.50;0.77;;;10.00;99.90;;;;;;5039947;28;20500;-91
2022/10/04 05:56:45;;;;;;;3.37;1.30;;;10.00;99.90;;;;;;5039806;28;20456;-91
2022/10/04 05:59:22;;;;;;;3.07;1.17;;;10.00;99.90;;;;;;5039881;28;20922;-91
2022/10/04 06:02:06;;;;;;;3.60;1.13;;;10.00;99.90;;;;;;5039666;28;20456;-91
2022/10/04 06:04:55;;;;;;;7.43;2.20;;;10.10;99.90;;;;;;5039796;28;20469;-91
2022/10/04 06:07:29;;;;;;;3.80;1.53;;;10.10;99.90;;;;;;5039386;28;20783;-92
2022/10/04 06:10:13;;;;;;;3.93;1.40;;;10.10;99.90;;;;;;5039788;28;20472;-91
2022/10/04 06:13:12;;;;;;;3.83;1.90;;;10.20;99.90;;;;;;5040048;28;20431;-90
2022/10/04 06:15:57;;;;;;;5.70;1.40;;;10.10;99.90;;;;;;5040019;28;20437;-91
2022/10/04 06:18:43;;;;;;;3.20;1.07;;;10.00;99.90;;;;;;5039497;28;20473;-91
2022/10/04 06:21:26;;;;;;;5.43;1.33;;;10.00;99.90;;;;;;5040120;28;20477;-91
2022/10/04 06:23:59;;;;;;;5.73;0.93;;;10.00;99.90;;;;;;5040159;28;20769;-91
2022/10/04 06:26:47;;;;;;;3.07;1.10;;;10.10;99.90;;;;;;5039536;28;20408;-91
2022/10/04 06:29:21;;;;;;;5.17;1.30;;;10.10;99.90;;;;;;5040197;28;20500;-91
2022/10/04 06:32:01;;;;;;;2.53;1.30;;;10.20;99.90;;;;;;5043870;28;20424;-91
2022/10/04 06:34:51;;;;;;;2.53;1.23;;;10.20;99.90;;;;;;5038519;28;20430;-91
2022/10/04 06:37:35;;;;;;;6.50;2.37;;;10.30;99.90;;;;;;5038069;28;20476;-93
2022/10/04 06:40:19;;;;;;;2.97;1.43;;;10.30;99.90;;;;;;5038628;28;20427;-92
2022/10/04 06:43:21;;;;;;;3.20;0.90;;;10.30;99.90;;;;;;5037977;28;20424;-90
2022/10/04 06:45:52;;;;;;;7.63;1.70;;;10.30;99.90;;;;;;5037605;28;20413;-91
2022/10/04 06:48:55;;;;;;;3.43;1.43;;;10.30;99.90;;;;;;5037772;28;20412;-90
2022/10/04 06:51:39;;;;;;;6.37;1.43;;;10.30;99.90;;;;;;5039059;28;20486;-90
2022/10/04 06:54:32;;;;;;;7.10;2.00;;;11.60;99.90;;;;;;5037836;28;20411;-92
2022/10/04 06:57:22;;;;;;;4.60;2.00;;;13.30;99.90;;;;;;5037646;28;20433;-91
2022/10/04 07:00:02;;;;;;;3.57;2.20;;;15.00;99.90;;;;;;5037311;28;20912;-91
2022/10/04 07:02:45;;;;;;;4.30;2.10;;;15.70;1.00;;;;;;5037584;28;20448;-91
2022/10/04 07:05:13;;;;;;;5.93;1.50;;;16.60;1.00;;;;;;5037139;28;20436;-92
2022/10/04 07:07:46;;;;;;;3.10;0.87;;;17.20;99.90;;;;;;5037516;28;20425;-91
2022/10/04 07:10:37;;;;;;;6.47;2.10;;;16.90;99.90;;;;;;5037330;28;20812;-93
2022/10/04 07:13:03;;;;;;;4.90;1.70;;;17.50;99.90;;;;;;5037723;28;20495;-92
2022/10/04 07:15:36;;;;;;;3.40;1.30;;;17.60;74.40;;;;;;5037252;28;20411;-92
2022/10/04 07:18:17;;;;;;;3.57;1.33;;;18.30;99.90;;;;;;5036930;28;20268;-92
2022/10/04 07:20:43;;;;;;;3.83;0.97;;;18.90;99.90;;;;;;5055437;28;20429;-94
2022/10/04 07:23:21;;;;;;;2.93;1.30;;;19.00;99.90;;;;;;5037878;28;20836;-91
2022/10/04 07:25:53;;;;;;;2.67;0.70;;;17.30;1.00;;;;;;5038424;28;20439;-93
2022/10/04 07:31:46;;;;;;;1.73;1.07;;;15.30;85.40;;;;;;5067694;28;20478;-95
2022/10/04 07:34:25;;;;;;;3.47;0.87;;;14.80;99.90;;;;;;5034810;28;20586;-94
2022/10/04 07:36:55;;;;;;;3.47;1.40;;;14.50;99.90;;;;;;5041826;28;20423;-93
2022/10/04 07:39:24;;;;;;;2.33;1.00;;;14.30;99.90;;;;;;5041093;28;20411;-93
2022/10/04 07:42:06;;;;;;;2.30;1.07;;;14.00;99.90;;;;;;5037761;28;20435;-93
2022/10/04 07:44:38;;;;;;;3.70;1.47;;;13.70;99.90;;;;;;5037799;28;20430;-91
2022/10/04 07:47:29;;;;;;;2.53;1.00;;;13.40;99.90;;;;;;5031771;28;20457;-92
2022/10/04 07:49:57;;;;;;;2.50;1.37;;;13.10;99.90;;;;;;5038285;28;20461;-94
2022/10/04 07:53:06;;;;;;;2.03;1.77;;;13.10;99.90;;;;;;5037906;28;20929;-96
2022/10/04 07:55:51;;;;;;;2.30;1.33;;;13.00;99.90;;;;;;4958921;28;21018;-95
2022/10/04 07:58:45;;;;;;;6.17;1.37;;;13.10;99.90;;;;;;4963448;28;20557;-95
2022/10/04 08:01:39;;;;;;;2.13;1.17;;;13.10;99.90;;;;;;5034037;28;20415;-94
2022/10/04 08:04:27;;;;;;;8.17;1.67;;;13.10;99.90;;;;;;5025364;28;20511;-95
2022/10/04 08:07:02;;;;;;;8.03;1.90;;;13.20;99.90;;;;;;5038415;28;20463;-95
2022/10/04 08:09:40;;;;;;;3.07;1.40;;;13.20;99.90;;;;;;5041525;28;20536;-95
2022/10/04 08:12:37;;;;;;;4.67;2.13;;;13.20;99.90;;;;;;5047788;28;20452;-94
2022/10/04 08:15:12;;;;;;;6.03;1.83;;;13.20;99.90;;;;;;5048541;28;20482;-94
2022/10/04 08:17:52;;;;;;;3.50;1.77;;;13.30;99.90;;;;;;5052365;28;20481;-94
2022/10/04 08:20:46;;;;;;;5.40;2.50;;;13.40;99.90;;;;;;5053344;28;20422;-95
2022/10/04 08:23:37;;;;;;;5.10;2.10;;;13.50;99.90;;;;;;5053830;28;20418;-94
2022/10/04 08:26:41;;;;;;;4.10;2.10;;;13.60;99.90;;;;;;5051308;28;20492;-95
2022/10/04 08:29:43;;;;;;;4.37;2.33;;;13.70;99.90;;;;;;5045986;28;20427;-95
2022/10/04 08:32:38;;;;;;;9.63;2.80;;;14.00;99.90;;;;;;5048893;28;20430;-95
2022/10/04 08:35:23;;;;;;;4.90;2.30;;;14.20;99.90;;;;;;5050226;28;20426;-94
2022/10/04 08:38:20;;;;;;;4.07;2.47;;;14.30;99.90;;;;;;5051539;28;20488;-95
2022/10/04 08:41:23;;;;;;;5.50;2.00;;;14.40;99.90;;;;;;5043042;28;20419;-92
2022/10/04 08:44:26;;;;;;;7.93;2.80;;;14.80;99.90;;;;;;5054272;28;20498;-94
2022/10/04 08:47:42;;;;;;;;;;;;;;;;;;;;;
2022/10/04 08:50:37;;;;;;;2.90;1.47;;;15.90;99.90;;;;;;5064915;28;20562;-95
2022/10/04 08:53:34;;;;;;;5.00;2.83;;;16.40;45.80;;;;;;5051668;28;20457;-94
2022/10/04 08:56:28;;;;;;;4.90;2.17;;;16.60;1.00;;;;;;5052545;28;20423;-95
2022/10/04 08:59:22;;;;;;;3.20;1.67;;;16.60;4.70;;;;;;5052568;28;20463;-93
2022/10/04 09:02:25;;;;;;;3.10;1.97;;;16.20;43.30;;;;;;5052983;28;20423;-94
2022/10/04 09:05:15;;;;;;;4.43;2.63;;;15.90;99.90;;;;;;5066290;28;20415;-92
2022/10/04 09:08:18;;;;;;;6.20;2.20;;;15.30;99.90;;;;;;5046379;28;20473;-93
2022/10/04 09:11:40;;;;;;;2.50;1.87;;;15.40;99.90;;;;;;5122937;22;20456;-90
2022/10/04 09:14:29;;;;;;;4.60;1.87;;;15.40;99.90;;;;;;5081774;28;20425;-93
2022/10/04 09:17:17;;;;;;;6.13;1.40;;;15.40;99.90;;;;;;5081269;28;20430;-93
2022/10/04 09:20:14;;;;;;;3.73;2.57;;;15.60;99.90;;;;;;5076421;28;20451;-92
2022/10/04 09:23:11;;;;;;;3.67;1.70;;;15.70;99.90;;;;;;5050739;28;20413;-91
2022/10/04 09:26:14;;;;;;;4.20;1.80;;;15.60;99.90;;;;;;5068007;28;20424;-92
2022/10/04 09:29:18;;;;;;;5.27;2.37;;;15.70;99.90;;;;;;5076924;28;20768;-90
2022/10/04 09:32:21;;;;;;;5.93;2.00;;;15.70;99.90;;;;;;5039705;28;20454;-89
2022/10/04 09:34:58;;;;;;;5.30;2.47;;;15.70;99.90;;;;;;5057935;28;20504;-86
2022/10/04 09:37:29;;;;;;;5.40;1.97;;;15.50;99.90;;;;;;5057298;28;20492;-91
2022/10/04 09:40:26;;;;;;;3.90;1.70;;;15.50;99.90;;;;;;5039421;28;20521;-87
2022/10/04 09:43:06;;;;;;;3.73;2.23;;;15.80;99.90;;;;;;5039447;28;20426;-93
2022/10/04 09:46:15;;;;;;;4.93;1.97;;;15.80;99.90;;;;;;5056701;28;20898;-92
2022/10/04 09:48:52;;;;;;;5.50;1.63;;;15.90;99.90;;;;;;5056870;28;20410;-93
2022/10/04 09:51:47;;;;;;;4.97;1.80;;;16.00;99.90;;;;;;5039383;28;20474;-90
2022/10/04 09:54:44;;;;;;;6.40;1.80;;;16.20;99.90;;;;;;5057444;28;20405;-93
2022/10/04 09:57:38;;;;;;;6.80;1.30;;;16.30;99.90;;;;;;5039297;28;20958;-89
2022/10/04 10:00:24;;;;;;;4.90;1.60;;;16.40;15.30;;;;;;5056845;28;20416;-92
2022/10/04 10:03:24;;;;;;;5.87;1.27;;;16.50;99.90;;;;;;5057423;28;20771;-92
2022/10/04 10:06:20;;;;;;;3.83;1.47;;;16.40;44.80;;;;;;5038966;28;20969;-90
2022/10/04 10:09:08;;;;;;;7.87;1.60;;;16.50;99.90;;;;;;5039137;28;20491;-86
2022/10/04 10:15:16;;;;;;;3.13;1.40;;;16.50;99.90;;;;;;5055881;28;20492;-90
2022/10/04 10:17:56;;;;;;;6.77;1.90;;;16.50;99.90;;;;;;5056787;28;20419;-90
2022/10/04 10:20:56;;;;;;;4.90;1.17;;;16.50;78.20;;;;;;5056247;28;20489;-85
2022/10/04 10:24:10;;;;;;;6.70;1.50;;;16.40;27.00;;;;;;5023552;28;20434;-91
2022/10/04 10:26:48;;;;;;;8.30;2.00;;;16.30;17.50;;;;;;5064854;28;20512;-91
2022/10/04 10:29:42;;;;;;;4.60;1.47;;;16.40;96.60;;;;;;5062721;28;20417;-93
2022/10/04 10:32:46;;;;;;;5.10;1.20;;;16.50;92.00;;;;;;5063236;28;20800;-87
2022/10/04 10:35:37;;;;;;;3.93;1.20;;;16.70;50.20;;;;;;5065421;28;20930;-90
2022/10/04 10:38:23;;;;;;;5.33;2.57;;;16.70;1.00;;;;;;5064546;28;20900;-87
2022/10/04 10:41:10;;;;;;;3.43;1.13;;;17.20;1.00;;;;;;5062217;28;20458;-86
2022/10/04 10:43:54;;;;;;;5.10;1.23;;;17.80;99.90;;;;;;5062813;28;20783;-88
2022/10/04 10:46:51;;;;;;;6.67;1.50;;;19.20;1.00;;;;;;5063711;28;20423;-93
2022/10/04 10:49:40;;;;;;;4.70;1.03;;;21.60;1.00;;;;;;5063223;28;20452;-89
2022/10/04 10:52:43;;;;;;;7.93;1.90;;;22.70;99.90;;;;;;5064115;28;20408;-86
2022/10/04 10:55:48;;;;;;;2.50;1.33;;;22.90;99.90;;;;;;5063875;28;20416;-81
2022/10/04 10:58:28;;;;;;;6.43;1.40;;;23.20;99.90;;;;;;5062419;28;20562;-81
2022/10/04 11:01:29;;;;;;;5.33;1.87;;;23.60;99.90;;;;;;5062725;28;20926;-82
2022/10/04 11:04:03;;;;;;;3.80;1.30;;;23.10;99.90;;;;;;5062910;28;20792;-84
2022/10/04 11:07:01;;;;;;;3.40;1.37;;;21.90;99.90;;;;;;5061984;28;20422;-81
2022/10/04 11:10:05;;;;;;;3.57;1.33;;;21.20;99.90;;;;;;5061503;28;20456;-81
2022/10/04 11:12:59;;;;;;;7.37;1.50;;;21.10;99.90;;;;;;5070029;28;21135;-83
2022/10/04 11:15:52;;;;;;;2.27;1.03;;;22.00;99.90;;;;;;5081830;28;20407;-81
2022/10/04 11:18:55;;;;;;;7.20;2.33;;;22.50;99.90;;;;;;5083533;28;21003;-81
2022/10/04 11:22:05;;;;;;;4.23;1.50;;;20.00;1.00;;;;;;5084493;28;20415;-80
2022/10/04 11:25:33;;;;;;;7.60;1.47;;;19.20;1.00;;;;;;5083181;28;20456;-87
2022/10/04 11:28:19;;;;;;;4.70;1.90;;;21.40;99.90;;;;;;5082890;28;20514;-82
2022/10/04 11:31:17;;;;;;;5.30;2.20;;;23.50;99.90;;;;;;5064207;28;20477;-80
2022/10/04 11:34:01;;;;;;;6.00;1.30;;;23.60;99.90;;;;;;5063812;28;20617;-82
2022/10/04 11:37:04;;;;;;;3.73;1.03;;;23.80;99.90;;;;;;5079979;28;20821;-81
2022/10/04 11:39:48;;;;;;;5.67;1.60;;;23.80;99.90;;;;;;5083414;28;20417;-80
2022/10/04 11:43:01;;;;;;;4.73;1.03;;;23.60;99.90;;;;;;5080596;28;20427;-82
2022/10/04 11:45:54;;;;;;;3.70;1.50;;;24.30;99.90;;;;;;5080503;28;20421;-81
2022/10/04 11:48:37;;;;;;;6.50;1.07;;;24.10;99.90;;;;;;5077447;28;20411;-82
2022/10/04 11:51:17;;;;;;;4.73;1.13;;;24.20;99.90;;;;;;5080834;28;20461;-82
2022/10/04 11:53:54;;;;;;;2.87;0.50;;;24.50;99.90;;;;;;5081275;28;20399;-84
2022/10/04 11:56:34;;;;;;;1.73;0.50;;;24.50;99.90;;;;;;5081222;28;20411;-82
2022/10/04 11:59:29;;;;;;;3.87;0.90;;;24.40;99.90;;;;;;5080952;28;20777;-85
2022/10/04 12:02:16;;;;;;;4.97;0.90;;;24.40;99.90;;;;;;5082368;28;20486;-81
2022/10/04 12:05:11;;;;;;;6.53;0.80;;;24.30;99.90;;;;;;5082812;28;20411;-81
2022/10/04 12:08:00;;;;;;;4.57;0.70;;;24.10;99.90;;;;;;5082689;28;20403;-80
2022/10/04 12:10:33;;;;;;;3.20;0.70;;;24.20;99.90;;;;;;5080976;28;21018;-79
2022/10/04 12:13:21;;;;;;;3.03;0.90;;;24.20;99.90;;;;;;5080618;28;20922;-79
2022/10/04 12:16:26;;;;;;;3.27;0.57;;;24.90;99.90;;;;;;5081177;28;20931;-82
2022/10/04 12:19:12;;;;;;;1.13;0.50;;;23.80;99.90;;;;;;5082999;28;20992;-81
2022/10/04 12:21:53;;;;;;;1.43;0.93;;;23.90;99.90;;;;;;5082541;28;20927;-81
2022/10/04 12:24:37;;;;;;;4.63;0.70;;;24.20;99.90;;;;;;5082763;28;20907;-80
2022/10/04 12:27:15;;;;;;;2.30;0.70;;;21.90;99.90;;;;;;5082947;28;20399;-88
2022/10/04 12:30:02;;;;;;;1.90;0.83;;;20.70;99.90;;;;;;5082394;28;20983;-84
2022/10/04 12:32:48;;;;;;;3.60;0.57;;;20.10;99.90;;;;;;5061928;28;20930;-81
2022/10/04 12:35:21;;;;;;;3.23;0.53;;;20.80;99.90;;;;;;5081937;28;20919;-79
2022/10/04 12:38:15;;;;;;;4.20;0.73;;;21.20;99.90;;;;;;5062026;28;20778;-81
2022/10/04 12:41:20;;;;;;;4.03;1.00;;;21.10;99.90;;;;;;5083598;28;20422;-86
2022/10/04 12:44:02;;;;;;;3.80;0.70;;;21.30;99.90;;;;;;5058533;28;20981;-84
2022/10/04 12:46:36;;;;;;;3.13;0.80;;;20.90;99.90;;;;;;5062782;28;20873;-82
2022/10/04 12:49:09;;;;;;;2.90;0.73;;;20.90;99.90;;;;;;5080378;28;20793;-80
2022/10/04 12:52:14;;;;;;;1.43;0.43;;;21.00;99.90;;;;;;5081348;28;20793;-81
2022/10/04 12:54:54;;;;;;;2.00;0.30;;;20.70;99.90;;;;;;5064256;28;20458;-80
2022/10/04 12:57:34;;;;;;;2.93;0.67;;;20.70;99.90;;;;;;5082305;28;20451;-81
2022/10/04 13:00:22;;;;;;;5.20;1.43;;;20.70;99.90;;;;;;5081956;28;20411;-81
2022/10/04 13:03:18;;;;;;;4.90;0.90;;;20.60;99.90;;;;;;5084059;28;20414;-82
2022/10/04 13:05:47;;;;;;;3.53;0.60;;;20.40;99.90;;;;;;5084358;28;20414;-84
2022/10/04 13:08:31;;;;;;;4.60;1.03;;;20.30;99.90;;;;;;5084520;28;20414;-81
2022/10/04 13:11:40;;;;;;;3.80;0.67;;;20.40;99.90;;;;;;5089060;28;20512;-81
2022/10/04 13:14:14;;;;;;;2.77;0.63;;;20.00;99.90;;;;;;5095928;28;20401;-82
2022/10/04 13:16:50;;;;;;;1.63;0.70;;;19.90;99.90;;;;;;5096066;28;20745;-80
2022/10/04 13:19:28;;;;;;;2.67;0.57;;;19.60;99.90;;;;;;5096200;28;20412;-81
2022/10/04 13:22:08;;;;;;;2.07;0.50;;;19.70;99.90;;;;;;5096096;28;20404;-80
2022/10/04 13:25:10;;;;;;;2.63;0.63;;;19.80;99.90;;;;;;5095887;28;20466;-80
2022/10/04 13:27:44;;;;;;;2.07;0.97;;;19.70;99.90;;;;;;5095720;28;20807;-79
2022/10/04 13:30:25;;;;;;;3.67;0.50;;;19.60;99.90;;;;;;5095828;28;20470;-79
2022/10/04 13:33:08;;;;;;;4.23;1.10;;;19.20;99.90;;;;;;5095990;28;20428;-80
2022/10/04 13:36:18;;;;;;;4.27;0.70;;;19.20;99.90;;;;;;5095606;28;20439;-86
2022/10/04 13:39:13;;;;;;;3.80;0.90;;;19.10;1.00;;;;;;5091416;28;20416;-81
2022/10/04 13:42:00;;;;;;;1.67;0.40;;;19.10;1.00;;;;;;5095787;28;20931;-80
2022/10/04 13:44:44;;;;;;;4.07;0.73;;;18.90;1.00;;;;;;5093630;28;20620;-86
2022/10/04 13:47:55;;;;;;;6.40;0.83;;;19.10;1.00;;;;;;5084691;28;20411;-81
2022/10/04 13:50:42;;;;;;;3.13;0.63;;;19.20;1.00;;;;;;5095106;28;20465;-81
2022/10/04 13:56:39;;;;;;;2.37;0.70;;;19.20;1.00;;;;;;5095165;28;20401;-83
2022/10/04 13:59:41;;;;;;;1.77;0.80;;;19.10;99.90;;;;;;5094741;28;20418;-83
2022/10/04 14:02:36;;;;;;;2.60;0.70;;;19.10;99.90;;;;;;5095004;28;20418;-83
2022/10/04 14:05:21;;;;;;;4.73;0.57;;;19.10;99.90;;;;;;5076685;28;20750;-86
2022/10/04 14:08:37;;;;;;;2.47;0.73;;;19.00;99.90;;;;;;5094848;28;20412;-81
2022/10/04 14:11:20;;;;;;;2.33;0.60;;;18.90;1.00;;;;;;5021868;28;20474;-81
2022/10/04 14:14:07;;;;;;;4.50;0.50;;;18.80;1.00;;;;;;5094300;28;20843;-81
2022/10/04 14:17:02;;;;;;;2.50;0.50;;;18.80;99.90;;;;;;5094635;28;20417;-82
2022/10/04 14:20:07;;;;;;;1.43;0.40;;;18.90;1.00;;;;;;5094863;28;20466;-83
2022/10/04 14:22:52;;;;;;;6.20;0.60;;;18.90;1.00;;;;;;5094632;28;20419;-83
2022/10/04 14:25:58;;;;;;;6.17;0.93;;;18.80;1.00;;;;;;5076312;28;20547;-81
2022/10/04 14:28:46;;;;;;;4.83;1.03;;;18.60;1.00;;;;;;5094087;28;20425;-81
2022/10/04 14:31:16;;;;;;;4.20;0.50;;;18.50;99.90;;;;;;5094366;28;20933;-82
2022/10/04 14:34:29;;;;;;;2.30;0.37;;;18.50;99.90;;;;;;5076098;28;20447;-82